sensor_id;sensor_type;location;lat;lon;timestamp;temperature;humidity
1277;DHT22;631;51.024;13.826;2023-08-30T00:00:18;14.70;99.90
1277;DHT22;631;51.024;13.826;2023-08-30T00:02:46;14.60;99.90
1277;DHT22;631;51.024;13.826;2023-08-30T00:05:13;14.60;99.90
1277;DHT22;631;51.024;13.826;2023-08-30T00:07:38;14.60;99.90
1277;DHT22;631;51.024;13.826;2023-08-30T00:10:06;14.60;99.90
1277;DHT22;631;51.024;13.826;2023-08-30T00:12:32;14.60;99.90
1277;DHT22;631;51.024;13.826;2023-08-30T00:14:58;14.60;99.90
1277;DHT22;631;51.024;13.826;2023-08-30T00:17:23;14.60;99.90
1277;DHT22;631;51.024;13.826;2023-08-30T00:19:50;14.60;99.90
1277;DHT22;631;51.024;13.826;2023-08-30T00:22:18;14.60;99.90
1277;DHT22;631;51.024;13.826;2023-08-30T00:24:44;14.60;99.90
1277;DHT22;631;51.024;13.826;2023-08-30T00:27:10;14.60;99.90
1277;DHT22;631;51.024;13.826;2023-08-30T00:29:37;14.70;99.90
1277;DHT22;631;51.024;13.826;2023-08-30T00:32:03;14.70;99.90
1277;DHT22;631;51.024;13.826;2023-08-30T00:34:29;14.70;99.90
1277;DHT22;631;51.024;13.826;2023-08-30T00:36:54;14.70;99.90
1277;DHT22;631;51.024;13.826;2023-08-30T00:39:20;14.70;99.90
1277;DHT22;631;51.024;13.826;2023-08-30T00:41:45;14.70;99.90
1277;DHT22;631;51.024;13.826;2023-08-30T00:44:11;14.70;99.90
1277;DHT22;631;51.024;13.826;2023-08-30T00:46:37;14.60;99.90
1277;DHT22;631;51.024;13.826;2023-08-30T00:49:04;14.60;99.90
1277;DHT22;631;51.024;13.826;2023-08-30T00:51:30;14.70;99.90
1277;DHT22;631;51.024;13.826;2023-08-30T00:53:56;14.70;99.90
1277;DHT22;631;51.024;13.826;2023-08-30T00:56:22;14.70;99.90
1277;DHT22;631;51.024;13.826;2023-08-30T00:58:49;14.70;99.90
1277;DHT22;631;51.024;13.826;2023-08-30T01:01:16;14.70;99.90
1277;DHT22;631;51.024;13.826;2023-08-30T01:03:42;14.70;99.90
1277;DHT22;631;51.024;13.826;2023-08-30T01:06:07;14.70;99.90
1277;DHT22;631;51.024;13.826;2023-08-30T01:08:34;14.80;99.90
1277;DHT22;631;51.024;13.826;2023-08-30T01:13:54;14.80;99.90
1277;DHT22;631;51.024;13.826;2023-08-30T01:16:21;14.80;99.90
1277;DHT22;631;51.024;13.826;2023-08-30T01:18:51;14.80;99.90
1277;DHT22;631;51.024;13.826;2023-08-30T01:21:32;14.80;99.90
1277;DHT22;631;51.024;13.826;2023-08-30T01:24:07;14.80;99.90
1277;DHT22;631;51.024;13.826;2023-08-30T01:29:23;14.90;99.90
1277;DHT22;631;51.024;13.826;2023-08-30T01:31:49;14.90;99.90
1277;DHT22;631;51.024;13.826;2023-08-30T01:34:16;14.90;99.90
1277;DHT22;631;51.024;13.826;2023-08-30T01:36:42;14.90;99.90
1277;DHT22;631;51.024;13.826;2023-08-30T01:39:10;14.90;99.90
1277;DHT22;631;51.024;13.826;2023-08-30T01:41:36;14.90;99.90
1277;DHT22;631;51.024;13.826;2023-08-30T01:44:03;15.00;99.90
1277;DHT22;631;51.024;13.826;2023-08-30T01:46:32;14.90;99.90
1277;DHT22;631;51.024;13.826;2023-08-30T01:49:00;14.90;99.90
1277;DHT22;631;51.024;13.826;2023-08-30T01:51:26;15.00;99.90
1277;DHT22;631;51.024;13.826;2023-08-30T01:53:54;15.00;99.90
1277;DHT22;631;51.024;13.826;2023-08-30T01:56:21;15.00;99.90
1277;DHT22;631;51.024;13.826;2023-08-30T01:58:47;15.00;99.90
1277;DHT22;631;51.024;13.826;2023-08-30T02:01:12;15.00;99.90
1277;DHT22;631;51.024;13.826;2023-08-30T02:03:39;15.00;99.90
1277;DHT22;631;51.024;13.826;2023-08-30T02:06:08;15.00;99.90
1277;DHT22;631;51.024;13.826;2023-08-30T02:08:49;15.00;99.90
1277;DHT22;631;51.024;13.826;2023-08-30T02:11:22;15.00;99.90
1277;DHT22;631;51.024;13.826;2023-08-30T02:13:48;15.00;99.90
1277;DHT22;631;51.024;13.826;2023-08-30T02:16:17;14.90;99.90
1277;DHT22;631;51.024;13.826;2023-08-30T02:18:43;14.90;99.90
1277;DHT22;631;51.024;13.826;2023-08-30T02:21:09;14.90;99.90
1277;DHT22;631;51.024;13.826;2023-08-30T02:23:35;14.80;99.90
1277;DHT22;631;51.024;13.826;2023-08-30T02:26:01;14.80;99.90
1277;DHT22;631;51.024;13.826;2023-08-30T02:28:28;14.80;99.90
1277;DHT22;631;51.024;13.826;2023-08-30T02:30:54;14.80;99.90
1277;DHT22;631;51.024;13.826;2023-08-30T02:33:20;14.80;99.90
1277;DHT22;631;51.024;13.826;2023-08-30T02:35:46;14.80;99.90
1277;DHT22;631;51.024;13.826;2023-08-30T02:38:12;14.80;99.90
1277;DHT22;631;51.024;13.826;2023-08-30T02:40:37;14.80;99.90
1277;DHT22;631;51.024;13.826;2023-08-30T02:43:03;14.80;99.90
1277;DHT22;631;51.024;13.826;2023-08-30T02:45:29;14.80;99.90
1277;DHT22;631;51.024;13.826;2023-08-30T02:47:57;14.80;99.90
1277;DHT22;631;51.024;13.826;2023-08-30T02:50:24;14.80;99.90
1277;DHT22;631;51.024;13.826;2023-08-30T02:52:50;14.80;99.90
1277;DHT22;631;51.024;13.826;2023-08-30T02:55:16;14.80;99.90
1277;DHT22;631;51.024;13.826;2023-08-30T02:57:41;14.80;99.90
1277;DHT22;631;51.024;13.826;2023-08-30T03:00:07;14.80;99.90
1277;DHT22;631;51.024;13.826;2023-08-30T03:02:34;14.70;99.90
1277;DHT22;631;51.024;13.826;2023-08-30T03:05:00;14.70;99.90
1277;DHT22;631;51.024;13.826;2023-08-30T03:07:27;14.70;99.90
1277;DHT22;631;51.024;13.826;2023-08-30T03:09:53;14.70;99.90
1277;DHT22;631;51.024;13.826;2023-08-30T03:12:19;14.70;99.90
1277;DHT22;631;51.024;13.826;2023-08-30T03:14:45;14.80;99.90
1277;DHT22;631;51.024;13.826;2023-08-30T03:17:10;14.80;99.90
1277;DHT22;631;51.024;13.826;2023-08-30T03:19:36;14.80;99.90
1277;DHT22;631;51.024;13.826;2023-08-30T03:22:02;14.80;99.90
1277;DHT22;631;51.024;13.826;2023-08-30T03:24:27;14.70;99.90
1277;DHT22;631;51.024;13.826;2023-08-30T03:26:53;14.70;99.90
1277;DHT22;631;51.024;13.826;2023-08-30T03:29:18;14.70;99.90
1277;DHT22;631;51.024;13.826;2023-08-30T03:31:44;14.70;99.90
1277;DHT22;631;51.024;13.826;2023-08-30T03:34:09;14.70;99.90
1277;DHT22;631;51.024;13.826;2023-08-30T03:36:35;14.70;99.90
1277;DHT22;631;51.024;13.826;2023-08-30T03:39:01;14.60;99.90
1277;DHT22;631;51.024;13.826;2023-08-30T03:41:26;14.70;99.90
1277;DHT22;631;51.024;13.826;2023-08-30T03:43:52;14.70;99.90
1277;DHT22;631;51.024;13.826;2023-08-30T03:46:17;14.60;99.90
1277;DHT22;631;51.024;13.826;2023-08-30T03:48:43;14.70;99.90
1277;DHT22;631;51.024;13.826;2023-08-30T03:51:08;14.70;99.90
1277;DHT22;631;51.024;13.826;2023-08-30T03:53:34;14.70;99.90
1277;DHT22;631;51.024;13.826;2023-08-30T03:56:00;14.70;99.90
1277;DHT22;631;51.024;13.826;2023-08-30T03:58:25;14.70;99.90
1277;DHT22;631;51.024;13.826;2023-08-30T04:00:51;14.70;99.90
1277;DHT22;631;51.024;13.826;2023-08-30T04:03:16;14.70;99.90
1277;DHT22;631;51.024;13.826;2023-08-30T04:05:43;14.60;99.90
1277;DHT22;631;51.024;13.826;2023-08-30T04:08:09;14.60;99.90
1277;DHT22;631;51.024;13.826;2023-08-30T04:10:39;14.60;99.90
1277;DHT22;631;51.024;13.826;2023-08-30T04:13:05;14.60;99.90
1277;DHT22;631;51.024;13.826;2023-08-30T04:15:35;14.60;99.90
1277;DHT22;631;51.024;13.826;2023-08-30T04:18:02;14.60;99.90
1277;DHT22;631;51.024;13.826;2023-08-30T04:20:28;14.60;99.90
1277;DHT22;631;51.024;13.826;2023-08-30T04:22:53;14.60;99.90
1277;DHT22;631;51.024;13.826;2023-08-30T04:25:20;14.60;99.90
1277;DHT22;631;51.024;13.826;2023-08-30T04:27:46;14.60;99.90
1277;DHT22;631;51.024;13.826;2023-08-30T04:30:12;14.60;99.90
1277;DHT22;631;51.024;13.826;2023-08-30T04:32:38;14.70;99.90
1277;DHT22;631;51.024;13.826;2023-08-30T04:35:03;14.70;99.90
1277;DHT22;631;51.024;13.826;2023-08-30T04:37:32;14.60;99.90
1277;DHT22;631;51.024;13.826;2023-08-30T04:39:58;14.70;99.90
1277;DHT22;631;51.024;13.826;2023-08-30T04:42:24;14.70;99.90
1277;DHT22;631;51.024;13.826;2023-08-30T04:44:51;14.60;99.90
1277;DHT22;631;51.024;13.826;2023-08-30T04:47:17;14.60;99.90
1277;DHT22;631;51.024;13.826;2023-08-30T04:49:42;14.60;99.90
1277;DHT22;631;51.024;13.826;2023-08-30T04:52:08;14.70;99.90
1277;DHT22;631;51.024;13.826;2023-08-30T04:54:34;14.70;99.90
1277;DHT22;631;51.024;13.826;2023-08-30T04:56:59;14.70;99.90
1277;DHT22;631;51.024;13.826;2023-08-30T04:59:25;14.70;99.90
1277;DHT22;631;51.024;13.826;2023-08-30T05:01:50;14.80;99.90
1277;DHT22;631;51.024;13.826;2023-08-30T05:04:17;14.80;99.90
1277;DHT22;631;51.024;13.826;2023-08-30T05:06:43;14.80;99.90
1277;DHT22;631;51.024;13.826;2023-08-30T05:09:09;14.80;99.90
1277;DHT22;631;51.024;13.826;2023-08-30T05:11:35;14.80;99.90
1277;DHT22;631;51.024;13.826;2023-08-30T05:14:00;14.90;99.90
1277;DHT22;631;51.024;13.826;2023-08-30T05:16:26;14.90;99.90
1277;DHT22;631;51.024;13.826;2023-08-30T05:18:51;14.90;99.90
1277;DHT22;631;51.024;13.826;2023-08-30T05:21:17;15.00;99.90
1277;DHT22;631;51.024;13.826;2023-08-30T05:23:43;15.00;99.90
1277;DHT22;631;51.024;13.826;2023-08-30T05:26:10;15.00;99.90
1277;DHT22;631;51.024;13.826;2023-08-30T05:28:38;15.10;99.90
1277;DHT22;631;51.024;13.826;2023-08-30T05:31:04;15.10;99.90
1277;DHT22;631;51.024;13.826;2023-08-30T05:33:29;15.10;99.90
1277;DHT22;631;51.024;13.826;2023-08-30T05:35:55;15.10;99.90
1277;DHT22;631;51.024;13.826;2023-08-30T05:38:21;15.10;99.90
1277;DHT22;631;51.024;13.826;2023-08-30T05:40:47;15.20;99.90
1277;DHT22;631;51.024;13.826;2023-08-30T05:43:12;15.20;99.90
1277;DHT22;631;51.024;13.826;2023-08-30T05:45:38;15.30;99.90
1277;DHT22;631;51.024;13.826;2023-08-30T05:48:05;15.30;99.90
1277;DHT22;631;51.024;13.826;2023-08-30T05:50:31;15.40;99.90
1277;DHT22;631;51.024;13.826;2023-08-30T05:52:56;15.40;99.90
1277;DHT22;631;51.024;13.826;2023-08-30T05:55:22;15.40;99.90
1277;DHT22;631;51.024;13.826;2023-08-30T05:57:48;15.40;99.90
1277;DHT22;631;51.024;13.826;2023-08-30T06:00:13;15.50;99.90
1277;DHT22;631;51.024;13.826;2023-08-30T06:02:40;15.60;99.90
1277;DHT22;631;51.024;13.826;2023-08-30T06:05:06;15.60;99.90
1277;DHT22;631;51.024;13.826;2023-08-30T06:07:32;15.70;99.90
1277;DHT22;631;51.024;13.826;2023-08-30T06:09:57;15.80;99.90
1277;DHT22;631;51.024;13.826;2023-08-30T06:12:23;15.80;99.90
1277;DHT22;631;51.024;13.826;2023-08-30T06:14:48;15.80;99.90
1277;DHT22;631;51.024;13.826;2023-08-30T06:17:18;15.90;99.90
1277;DHT22;631;51.024;13.826;2023-08-30T06:19:45;16.00;99.90
1277;DHT22;631;51.024;13.826;2023-08-30T06:22:11;16.00;99.90
1277;DHT22;631;51.024;13.826;2023-08-30T06:24:36;16.10;99.90
1277;DHT22;631;51.024;13.826;2023-08-30T06:27:02;16.20;99.90
1277;DHT22;631;51.024;13.826;2023-08-30T06:29:28;16.20;99.90
1277;DHT22;631;51.024;13.826;2023-08-30T06:31:53;16.20;99.90
1277;DHT22;631;51.024;13.826;2023-08-30T06:34:19;16.20;99.90
1277;DHT22;631;51.024;13.826;2023-08-30T06:36:45;16.20;99.90
1277;DHT22;631;51.024;13.826;2023-08-30T06:39:10;16.30;99.90
1277;DHT22;631;51.024;13.826;2023-08-30T06:41:36;16.30;99.90
1277;DHT22;631;51.024;13.826;2023-08-30T06:44:02;16.30;99.90
1277;DHT22;631;51.024;13.826;2023-08-30T06:46:27;16.30;99.90
1277;DHT22;631;51.024;13.826;2023-08-30T06:48:53;16.30;99.90
1277;DHT22;631;51.024;13.826;2023-08-30T06:51:18;16.30;99.90
1277;DHT22;631;51.024;13.826;2023-08-30T06:53:44;16.30;99.90
1277;DHT22;631;51.024;13.826;2023-08-30T06:56:09;16.40;99.90
1277;DHT22;631;51.024;13.826;2023-08-30T06:58:35;16.40;99.90
1277;DHT22;631;51.024;13.826;2023-08-30T07:01:01;16.40;99.90
1277;DHT22;631;51.024;13.826;2023-08-30T07:03:28;16.40;99.90
1277;DHT22;631;51.024;13.826;2023-08-30T07:05:54;16.50;99.90
1277;DHT22;631;51.024;13.826;2023-08-30T07:08:20;16.60;99.90
1277;DHT22;631;51.024;13.826;2023-08-30T07:10:45;16.60;99.90
1277;DHT22;631;51.024;13.826;2023-08-30T07:13:11;16.70;99.90
1277;DHT22;631;51.024;13.826;2023-08-30T07:15:39;16.70;99.90
1277;DHT22;631;51.024;13.826;2023-08-30T07:18:05;16.80;99.90
1277;DHT22;631;51.024;13.826;2023-08-30T07:20:31;16.80;99.90
1277;DHT22;631;51.024;13.826;2023-08-30T07:22:57;16.80;99.90
1277;DHT22;631;51.024;13.826;2023-08-30T07:25:23;16.90;99.90
1277;DHT22;631;51.024;13.826;2023-08-30T07:27:49;16.90;99.90
1277;DHT22;631;51.024;13.826;2023-08-30T07:30:15;16.90;99.90
1277;DHT22;631;51.024;13.826;2023-08-30T07:32:41;16.90;99.90
1277;DHT22;631;51.024;13.826;2023-08-30T07:35:07;17.00;99.90
1277;DHT22;631;51.024;13.826;2023-08-30T07:37:33;17.00;99.90
1277;DHT22;631;51.024;13.826;2023-08-30T07:39:59;17.00;99.90
1277;DHT22;631;51.024;13.826;2023-08-30T07:42:25;17.10;99.90
1277;DHT22;631;51.024;13.826;2023-08-30T07:44:50;17.10;99.90
1277;DHT22;631;51.024;13.826;2023-08-30T07:47:16;17.20;99.90
1277;DHT22;631;51.024;13.826;2023-08-30T07:49:42;17.20;99.90
1277;DHT22;631;51.024;13.826;2023-08-30T07:52:08;17.20;99.90
1277;DHT22;631;51.024;13.826;2023-08-30T07:54:37;17.40;99.90
1277;DHT22;631;51.024;13.826;2023-08-30T07:57:04;17.50;99.90
1277;DHT22;631;51.024;13.826;2023-08-30T07:59:32;17.50;99.90
1277;DHT22;631;51.024;13.826;2023-08-30T08:01:58;17.60;99.90
1277;DHT22;631;51.024;13.826;2023-08-30T08:04:23;17.70;99.90
1277;DHT22;631;51.024;13.826;2023-08-30T08:06:49;17.80;99.90
1277;DHT22;631;51.024;13.826;2023-08-30T08:09:14;17.90;99.90
1277;DHT22;631;51.024;13.826;2023-08-30T08:11:41;18.00;99.90
1277;DHT22;631;51.024;13.826;2023-08-30T08:14:09;18.00;99.90
1277;DHT22;631;51.024;13.826;2023-08-30T08:16:36;18.20;99.90
1277;DHT22;631;51.024;13.826;2023-08-30T08:19:02;18.30;99.90
1277;DHT22;631;51.024;13.826;2023-08-30T08:21:28;18.30;99.90
1277;DHT22;631;51.024;13.826;2023-08-30T08:23:53;18.40;99.90
1277;DHT22;631;51.024;13.826;2023-08-30T08:26:19;18.40;99.90
1277;DHT22;631;51.024;13.826;2023-08-30T08:28:45;18.60;99.90
1277;DHT22;631;51.024;13.826;2023-08-30T08:31:10;18.70;99.90
1277;DHT22;631;51.024;13.826;2023-08-30T08:33:36;18.70;99.90
1277;DHT22;631;51.024;13.826;2023-08-30T08:36:02;18.70;99.90
1277;DHT22;631;51.024;13.826;2023-08-30T08:38:27;18.90;99.90
1277;DHT22;631;51.024;13.826;2023-08-30T08:41:05;19.00;99.90
1277;DHT22;631;51.024;13.826;2023-08-30T08:43:32;19.10;99.90
1277;DHT22;631;51.024;13.826;2023-08-30T08:46:00;19.20;99.90
1277;DHT22;631;51.024;13.826;2023-08-30T08:48:28;19.30;99.90
1277;DHT22;631;51.024;13.826;2023-08-30T08:50:55;19.30;99.90
1277;DHT22;631;51.024;13.826;2023-08-30T08:53:22;19.10;99.90
1277;DHT22;631;51.024;13.826;2023-08-30T08:55:48;19.20;99.90
1277;DHT22;631;51.024;13.826;2023-08-30T08:58:15;19.30;99.90
1277;DHT22;631;51.024;13.826;2023-08-30T09:00:44;19.40;99.90
1277;DHT22;631;51.024;13.826;2023-08-30T09:03:10;19.40;99.90
1277;DHT22;631;51.024;13.826;2023-08-30T09:05:41;19.50;99.90
1277;DHT22;631;51.024;13.826;2023-08-30T09:08:10;19.70;99.90
1277;DHT22;631;51.024;13.826;2023-08-30T09:10:38;19.90;99.90
1277;DHT22;631;51.024;13.826;2023-08-30T09:13:05;20.10;99.90
1277;DHT22;631;51.024;13.826;2023-08-30T09:15:35;20.10;99.90
1277;DHT22;631;51.024;13.826;2023-08-30T09:18:02;20.20;99.90
1277;DHT22;631;51.024;13.826;2023-08-30T09:20:28;20.30;99.90
1277;DHT22;631;51.024;13.826;2023-08-30T09:22:54;20.40;99.90
1277;DHT22;631;51.024;13.826;2023-08-30T09:25:27;20.50;99.90
1277;DHT22;631;51.024;13.826;2023-08-30T09:27:59;20.70;99.90
1277;DHT22;631;51.024;13.826;2023-08-30T09:30:25;21.00;99.90
1277;DHT22;631;51.024;13.826;2023-08-30T09:32:51;21.30;99.90
1277;DHT22;631;51.024;13.826;2023-08-30T09:35:17;21.60;99.90
1277;DHT22;631;51.024;13.826;2023-08-30T09:37:46;21.90;99.90
1277;DHT22;631;51.024;13.826;2023-08-30T09:40:18;22.30;99.90
1277;DHT22;631;51.024;13.826;2023-08-30T09:42:43;22.40;99.90
1277;DHT22;631;51.024;13.826;2023-08-30T09:45:19;22.40;99.90
1277;DHT22;631;51.024;13.826;2023-08-30T09:47:49;22.40;99.90
1277;DHT22;631;51.024;13.826;2023-08-30T09:50:17;22.50;99.90
1277;DHT22;631;51.024;13.826;2023-08-30T09:52:45;22.60;99.90
1277;DHT22;631;51.024;13.826;2023-08-30T09:55:11;22.70;99.90
1277;DHT22;631;51.024;13.826;2023-08-30T09:57:37;22.80;99.90
1277;DHT22;631;51.024;13.826;2023-08-30T10:00:04;22.70;99.90
1277;DHT22;631;51.024;13.826;2023-08-30T10:02:31;22.80;99.90
1277;DHT22;631;51.024;13.826;2023-08-30T10:04:58;22.70;99.90
1277;DHT22;631;51.024;13.826;2023-08-30T10:07:24;22.70;99.90
1277;DHT22;631;51.024;13.826;2023-08-30T10:09:51;22.80;99.60
1277;DHT22;631;51.024;13.826;2023-08-30T10:12:20;22.80;99.90
1277;DHT22;631;51.024;13.826;2023-08-30T10:14:47;22.40;98.70
1277;DHT22;631;51.024;13.826;2023-08-30T10:17:14;22.10;99.90
1277;DHT22;631;51.024;13.826;2023-08-30T10:19:44;22.10;99.90
1277;DHT22;631;51.024;13.826;2023-08-30T10:22:11;22.10;99.90
1277;DHT22;631;51.024;13.826;2023-08-30T10:24:46;21.90;99.90
1277;DHT22;631;51.024;13.826;2023-08-30T10:27:13;21.90;99.90
1277;DHT22;631;51.024;13.826;2023-08-30T10:29:40;21.90;99.90
1277;DHT22;631;51.024;13.826;2023-08-30T10:32:06;21.90;99.90
1277;DHT22;631;51.024;13.826;2023-08-30T10:34:36;22.00;99.90
1277;DHT22;631;51.024;13.826;2023-08-30T10:37:06;22.10;99.90
1277;DHT22;631;51.024;13.826;2023-08-30T10:39:41;21.90;99.60
1277;DHT22;631;51.024;13.826;2023-08-30T10:42:15;22.20;99.90
1277;DHT22;631;51.024;13.826;2023-08-30T10:47:29;22.40;96.50
1277;DHT22;631;51.024;13.826;2023-08-30T10:49:55;22.50;99.30
1277;DHT22;631;51.024;13.826;2023-08-30T10:52:22;22.70;97.30
1277;DHT22;631;51.024;13.826;2023-08-30T10:54:47;22.90;99.40
1277;DHT22;631;51.024;13.826;2023-08-30T10:57:15;22.90;99.90
1277;DHT22;631;51.024;13.826;2023-08-30T11:02:34;23.10;96.30
1277;DHT22;631;51.024;13.826;2023-08-30T11:05:00;22.40;93.70
1277;DHT22;631;51.024;13.826;2023-08-30T11:07:26;22.30;94.40
1277;DHT22;631;51.024;13.826;2023-08-30T11:09:52;22.30;96.80
1277;DHT22;631;51.024;13.826;2023-08-30T11:12:18;22.40;98.40
1277;DHT22;631;51.024;13.826;2023-08-30T11:14:51;22.40;99.80
1277;DHT22;631;51.024;13.826;2023-08-30T11:17:17;22.60;97.40
1277;DHT22;631;51.024;13.826;2023-08-30T11:19:44;22.60;99.00
1277;DHT22;631;51.024;13.826;2023-08-30T11:22:10;22.80;96.10
1277;DHT22;631;51.024;13.826;2023-08-30T11:24:36;22.90;95.30
1277;DHT22;631;51.024;13.826;2023-08-30T11:27:01;22.70;94.10
1277;DHT22;631;51.024;13.826;2023-08-30T11:29:27;22.80;97.70
1277;DHT22;631;51.024;13.826;2023-08-30T11:31:53;23.00;99.90
1277;DHT22;631;51.024;13.826;2023-08-30T11:34:21;23.20;98.40
1277;DHT22;631;51.024;13.826;2023-08-30T11:36:52;23.60;95.30
1277;DHT22;631;51.024;13.826;2023-08-30T11:39:19;24.10;90.20
1277;DHT22;631;51.024;13.826;2023-08-30T11:41:46;24.80;92.00
1277;DHT22;631;51.024;13.826;2023-08-30T11:44:12;25.30;83.80
1277;DHT22;631;51.024;13.826;2023-08-30T11:46:38;26.10;81.10
1277;DHT22;631;51.024;13.826;2023-08-30T11:49:04;26.80;69.10
1277;DHT22;631;51.024;13.826;2023-08-30T11:51:30;27.80;63.80
1277;DHT22;631;51.024;13.826;2023-08-30T11:53:56;28.70;57.00
1277;DHT22;631;51.024;13.826;2023-08-30T11:56:23;29.30;49.70
1277;DHT22;631;51.024;13.826;2023-08-30T11:58:49;29.50;46.90
1277;DHT22;631;51.024;13.826;2023-08-30T12:01:18;30.00;46.00
1277;DHT22;631;51.024;13.826;2023-08-30T12:03:44;30.60;42.70
1277;DHT22;631;51.024;13.826;2023-08-30T12:06:16;31.00;44.90
1277;DHT22;631;51.024;13.826;2023-08-30T12:08:42;31.60;42.90
1277;DHT22;631;51.024;13.826;2023-08-30T12:11:20;32.20;38.40
1277;DHT22;631;51.024;13.826;2023-08-30T12:13:46;32.50;34.90
1277;DHT22;631;51.024;13.826;2023-08-30T12:16:19;32.90;33.10
1277;DHT22;631;51.024;13.826;2023-08-30T12:18:46;32.50;31.90
1277;DHT22;631;51.024;13.826;2023-08-30T12:21:13;32.20;32.50
1277;DHT22;631;51.024;13.826;2023-08-30T12:23:39;32.00;36.50
1277;DHT22;631;51.024;13.826;2023-08-30T12:26:09;31.50;36.20
1277;DHT22;631;51.024;13.826;2023-08-30T12:28:39;31.20;36.90
1277;DHT22;631;51.024;13.826;2023-08-30T12:31:06;30.50;39.10
1277;DHT22;631;51.024;13.826;2023-08-30T12:33:34;30.00;39.00
1277;DHT22;631;51.024;13.826;2023-08-30T12:36:00;29.30;44.00
1277;DHT22;631;51.024;13.826;2023-08-30T12:38:26;29.30;46.10
1277;DHT22;631;51.024;13.826;2023-08-30T12:40:54;30.10;40.70
1277;DHT22;631;51.024;13.826;2023-08-30T12:43:20;30.10;39.40
1277;DHT22;631;51.024;13.826;2023-08-30T12:45:47;30.00;39.20
1277;DHT22;631;51.024;13.826;2023-08-30T12:48:13;30.10;40.20
1277;DHT22;631;51.024;13.826;2023-08-30T12:50:41;29.90;39.30
1277;DHT22;631;51.024;13.826;2023-08-30T12:53:07;29.30;38.50
1277;DHT22;631;51.024;13.826;2023-08-30T12:55:33;28.80;39.80
1277;DHT22;631;51.024;13.826;2023-08-30T12:58:02;28.10;40.40
1277;DHT22;631;51.024;13.826;2023-08-30T13:00:30;27.80;43.00
1277;DHT22;631;51.024;13.826;2023-08-30T13:02:55;27.20;45.10
1277;DHT22;631;51.024;13.826;2023-08-30T13:05:21;26.50;44.40
1277;DHT22;631;51.024;13.826;2023-08-30T13:07:47;26.00;46.70
1277;DHT22;631;51.024;13.826;2023-08-30T13:10:13;25.60;50.50
1277;DHT22;631;51.024;13.826;2023-08-30T13:12:40;25.10;45.80
1277;DHT22;631;51.024;13.826;2023-08-30T13:15:06;24.70;49.50
1277;DHT22;631;51.024;13.826;2023-08-30T13:17:33;24.30;49.60
1277;DHT22;631;51.024;13.826;2023-08-30T13:19:58;23.80;50.00
1277;DHT22;631;51.024;13.826;2023-08-30T13:22:25;23.40;53.80
1277;DHT22;631;51.024;13.826;2023-08-30T13:24:51;23.20;52.20
1277;DHT22;631;51.024;13.826;2023-08-30T13:27:17;23.00;52.50
1277;DHT22;631;51.024;13.826;2023-08-30T13:29:43;22.90;52.90
1277;DHT22;631;51.024;13.826;2023-08-30T13:32:09;23.40;54.00
1277;DHT22;631;51.024;13.826;2023-08-30T13:34:34;24.30;52.40
1277;DHT22;631;51.024;13.826;2023-08-30T13:37:00;25.00;48.80
1277;DHT22;631;51.024;13.826;2023-08-30T13:39:25;26.10;49.60
1277;DHT22;631;51.024;13.826;2023-08-30T13:41:51;26.30;42.30
1277;DHT22;631;51.024;13.826;2023-08-30T13:44:16;26.60;43.60
1277;DHT22;631;51.024;13.826;2023-08-30T13:46:44;27.40;44.50
1277;DHT22;631;51.024;13.826;2023-08-30T13:49:10;28.20;43.50
1277;DHT22;631;51.024;13.826;2023-08-30T13:51:35;28.20;40.20
1277;DHT22;631;51.024;13.826;2023-08-30T13:54:02;28.10;38.60
1277;DHT22;631;51.024;13.826;2023-08-30T13:56:28;28.40;40.10
1277;DHT22;631;51.024;13.826;2023-08-30T13:58:55;29.20;39.80
1277;DHT22;631;51.024;13.826;2023-08-30T14:01:20;29.90;37.80
1277;DHT22;631;51.024;13.826;2023-08-30T14:03:46;29.80;37.60
1277;DHT22;631;51.024;13.826;2023-08-30T14:06:12;29.60;34.90
1277;DHT22;631;51.024;13.826;2023-08-30T14:08:37;29.00;35.70
1277;DHT22;631;51.024;13.826;2023-08-30T14:11:03;28.40;37.80
1277;DHT22;631;51.024;13.826;2023-08-30T14:13:31;27.90;37.60
1277;DHT22;631;51.024;13.826;2023-08-30T14:16:03;27.20;38.80
1277;DHT22;631;51.024;13.826;2023-08-30T14:18:29;26.70;39.80
1277;DHT22;631;51.024;13.826;2023-08-30T14:20:56;26.50;41.70
1277;DHT22;631;51.024;13.826;2023-08-30T14:23:24;26.20;42.20
1277;DHT22;631;51.024;13.826;2023-08-30T14:26:16;25.90;42.50
1277;DHT22;631;51.024;13.826;2023-08-30T14:28:41;25.90;47.10
1277;DHT22;631;51.024;13.826;2023-08-30T14:31:10;25.90;48.30
1277;DHT22;631;51.024;13.826;2023-08-30T14:33:36;26.10;49.30
1277;DHT22;631;51.024;13.826;2023-08-30T14:36:02;26.30;49.30
1277;DHT22;631;51.024;13.826;2023-08-30T14:38:28;26.60;47.40
1277;DHT22;631;51.024;13.826;2023-08-30T14:40:56;26.70;46.90
1277;DHT22;631;51.024;13.826;2023-08-30T14:43:22;26.50;47.60
1277;DHT22;631;51.024;13.826;2023-08-30T14:45:47;26.60;48.30
1277;DHT22;631;51.024;13.826;2023-08-30T14:48:13;26.90;46.00
1277;DHT22;631;51.024;13.826;2023-08-30T14:50:38;27.40;45.30
1277;DHT22;631;51.024;13.826;2023-08-30T14:53:04;27.90;41.70
1277;DHT22;631;51.024;13.826;2023-08-30T14:55:31;28.20;39.60
1277;DHT22;631;51.024;13.826;2023-08-30T14:57:56;28.60;40.30
1277;DHT22;631;51.024;13.826;2023-08-30T15:00:22;28.80;39.00
1277;DHT22;631;51.024;13.826;2023-08-30T15:02:48;29.20;39.00
1277;DHT22;631;51.024;13.826;2023-08-30T15:05:13;29.10;39.10
1277;DHT22;631;51.024;13.826;2023-08-30T15:07:39;28.80;39.70
1277;DHT22;631;51.024;13.826;2023-08-30T15:10:05;28.60;38.10
1277;DHT22;631;51.024;13.826;2023-08-30T15:12:30;28.20;39.80
1277;DHT22;631;51.024;13.826;2023-08-30T15:14:56;27.80;41.50
1277;DHT22;631;51.024;13.826;2023-08-30T15:17:21;27.30;41.30
1277;DHT22;631;51.024;13.826;2023-08-30T15:19:47;26.80;42.50
1277;DHT22;631;51.024;13.826;2023-08-30T15:22:13;26.30;43.60
1277;DHT22;631;51.024;13.826;2023-08-30T15:24:38;25.90;43.90
1277;DHT22;631;51.024;13.826;2023-08-30T15:27:04;25.60;46.10
1277;DHT22;631;51.024;13.826;2023-08-30T15:29:29;25.20;47.70
1277;DHT22;631;51.024;13.826;2023-08-30T15:31:55;24.90;51.60
1277;DHT22;631;51.024;13.826;2023-08-30T15:34:21;24.60;56.10
1277;DHT22;631;51.024;13.826;2023-08-30T15:36:46;24.30;53.40
1277;DHT22;631;51.024;13.826;2023-08-30T15:39:14;24.10;53.20
1277;DHT22;631;51.024;13.826;2023-08-30T15:41:41;23.90;54.50
1277;DHT22;631;51.024;13.826;2023-08-30T15:44:06;23.70;58.00
1277;DHT22;631;51.024;13.826;2023-08-30T15:46:32;23.60;61.10
1277;DHT22;631;51.024;13.826;2023-08-30T15:48:58;23.50;59.50
1277;DHT22;631;51.024;13.826;2023-08-30T15:51:24;23.40;63.10
1277;DHT22;631;51.024;13.826;2023-08-30T15:53:50;23.40;63.10
1277;DHT22;631;51.024;13.826;2023-08-30T15:56:16;23.40;64.20
1277;DHT22;631;51.024;13.826;2023-08-30T15:58:42;23.50;64.70
1277;DHT22;631;51.024;13.826;2023-08-30T16:01:08;23.50;68.00
1277;DHT22;631;51.024;13.826;2023-08-30T16:03:33;23.40;64.00
1277;DHT22;631;51.024;13.826;2023-08-30T16:06:01;23.40;67.00
1277;DHT22;631;51.024;13.826;2023-08-30T16:08:27;23.40;66.00